createdAt,value
2022-08-23T00:00:13.867Z,1.4
2022-08-23T00:05:10.195Z,4.3
2022-08-23T00:10:00.335Z,1.4
2022-08-23T00:15:00.315Z,1.4
2022-08-23T00:20:00.330Z,1.4
2022-08-23T00:25:00.307Z,1.8
2022-08-23T00:30:00.324Z,1.4
2022-08-23T00:35:00.329Z,1.4
2022-08-23T00:40:00.777Z,0.0
2022-08-23T00:45:00.325Z,0.0
2022-08-23T00:50:00.313Z,0.0
2022-08-23T00:55:00.304Z,1.8
2022-08-23T01:00:00.352Z,3.2
2022-08-23T01:05:00.280Z,3.2
2022-08-23T01:10:03.539Z,4.0
2022-08-23T01:15:00.334Z,4.3
2022-08-23T01:20:01.670Z,4.7
2022-08-23T01:25:09.405Z,2.2
2022-08-23T01:30:00.356Z,1.8
2022-08-23T01:35:00.279Z,1.8
2022-08-23T01:40:00.635Z,3.2
2022-08-23T01:45:00.276Z,5.0
2022-08-23T01:50:00.307Z,2.5
2022-08-23T01:55:00.313Z,0.0
2022-08-23T02:00:00.430Z,2.2
2022-08-23T02:05:00.293Z,0.0
2022-08-23T02:10:02.977Z,1.4
2022-08-23T02:15:00.389Z,0.0
2022-08-23T02:20:00.297Z,0.0
2022-08-23T02:25:00.322Z,0.0
2022-08-23T02:30:02.364Z,2.5
2022-08-23T02:35:06.182Z,1.4
2022-08-23T02:40:00.672Z,3.2
2022-08-23T02:45:00.446Z,3.6
2022-08-23T02:50:00.364Z,5.0
2022-08-23T02:55:00.391Z,3.6
2022-08-23T03:00:00.424Z,3.6
2022-08-23T03:05:00.379Z,0.0
2022-08-23T03:10:00.400Z,5.0
2022-08-23T03:15:00.385Z,4.7
2022-08-23T03:20:00.387Z,3.2
2022-08-23T03:25:00.376Z,3.6
2022-08-23T03:30:01.091Z,3.2
2022-08-23T03:35:00.290Z,1.4
2022-08-23T03:40:00.714Z,0.0
2022-08-23T03:45:03.006Z,0.0
2022-08-23T03:50:00.297Z,0.0
2022-08-23T03:55:00.346Z,0.0
2022-08-23T04:00:00.291Z,0.0
2022-08-23T04:05:00.294Z,0.0
2022-08-23T04:10:00.312Z,0.0
2022-08-23T04:15:02.977Z,0.0
2022-08-23T04:20:00.295Z,1.8
2022-08-23T04:25:00.303Z,1.1
2022-08-23T04:30:00.352Z,0.0
2022-08-23T04:35:00.284Z,2.2
2022-08-23T04:40:00.690Z,2.5
2022-08-23T04:45:00.352Z,2.5
2022-08-23T04:50:00.328Z,4.0
2022-08-23T04:55:00.297Z,3.2
2022-08-23T05:00:00.434Z,3.6
2022-08-23T05:05:00.294Z,0.0
2022-08-23T05:10:00.343Z,2.5
2022-08-23T05:15:00.327Z,0.0
2022-08-23T05:20:00.326Z,2.9
2022-08-23T05:25:00.307Z,4.7
2022-08-23T05:30:00.345Z,5.0
2022-08-23T05:35:00.326Z,2.9
2022-08-23T05:40:00.487Z,4.3
2022-08-23T05:45:00.343Z,3.2
2022-08-23T05:50:00.304Z,5.8
2022-08-23T05:55:00.389Z,7.6
2022-08-23T06:00:00.318Z,3.6
2022-08-23T06:05:00.311Z,6.5
2022-08-23T06:10:00.304Z,10.4
2022-08-23T06:15:00.314Z,10.1
2022-08-23T06:20:00.610Z,5.0
2022-08-23T06:25:00.336Z,10.8
2022-08-23T06:30:00.386Z,6.8
2022-08-23T06:35:33.363Z,9.4
2022-08-23T06:40:00.649Z,6.5
2022-08-23T06:45:00.424Z,8.6
2022-08-23T06:50:00.682Z,8.3
2022-08-23T06:55:00.323Z,4.7
2022-08-23T07:00:00.406Z,9.4
2022-08-23T07:05:00.316Z,5.8
2022-08-23T07:10:00.352Z,9.7
2022-08-23T07:15:00.343Z,4.7
2022-08-23T07:20:00.422Z,11.2
2022-08-23T07:25:00.298Z,9.0
2022-08-23T07:30:00.403Z,5.0
2022-08-23T07:35:00.358Z,7.9
2022-08-23T07:40:00.606Z,13.7
2022-08-23T07:45:00.354Z,7.9
2022-08-23T07:50:00.352Z,7.9
2022-08-23T07:55:00.347Z,10.1
2022-08-23T08:00:00.387Z,10.8
2022-08-23T08:05:00.307Z,8.3
2022-08-23T08:10:00.358Z,11.9
2022-08-23T08:15:00.370Z,12.6
2022-08-23T08:20:00.354Z,6.5
2022-08-23T08:25:00.333Z,7.2
2022-08-23T08:30:00.356Z,10.8
2022-08-23T08:35:00.540Z,13.0
2022-08-23T08:40:00.607Z,12.2
2022-08-23T08:45:00.508Z,11.5
2022-08-23T08:50:00.344Z,12.2
2022-08-23T08:55:00.427Z,19.1
2022-08-23T09:00:00.407Z,8.6
2022-08-23T09:05:00.324Z,15.8
2022-08-23T09:10:00.397Z,7.9
2022-08-23T09:15:00.360Z,15.8
2022-08-23T09:20:00.468Z,12.2
2022-08-23T09:25:00.310Z,8.3
2022-08-23T09:30:00.372Z,10.4
2022-08-23T09:35:00.401Z,15.8
2022-08-23T09:40:00.600Z,16.9
2022-08-23T09:45:00.375Z,10.8
2022-08-23T09:50:00.315Z,16.6
2022-08-23T09:55:00.481Z,13.0
2022-08-23T10:00:00.392Z,13.3
2022-08-23T10:05:00.711Z,11.9
2022-08-23T10:10:02.390Z,17.3
2022-08-23T10:15:00.368Z,13.3
2022-08-23T10:20:00.377Z,13.0
2022-08-23T10:25:00.366Z,11.2
2022-08-23T10:30:00.350Z,10.1
2022-08-23T10:35:00.372Z,15.5
2022-08-23T10:40:04.803Z,14.8
2022-08-23T10:45:00.455Z,8.3
2022-08-23T10:50:00.388Z,10.8
2022-08-23T10:55:00.528Z,9.7
2022-08-23T11:00:00.376Z,6.1
2022-08-23T11:05:00.374Z,20.2
2022-08-23T11:10:02.256Z,15.5
2022-08-23T11:15:00.365Z,7.9
2022-08-23T11:20:00.366Z,11.5
2022-08-23T11:25:00.418Z,10.8
2022-08-23T11:30:00.321Z,12.2
2022-08-23T11:35:00.334Z,7.9
2022-08-23T11:40:00.871Z,9.7
2022-08-23T11:45:00.415Z,13.0
2022-08-23T11:50:00.507Z,5.8
2022-08-23T11:55:00.288Z,12.6
2022-08-23T12:00:00.358Z,11.9
2022-08-23T12:05:00.309Z,11.9
2022-08-23T12:10:00.441Z,9.0
2022-08-23T12:15:00.369Z,8.6
2022-08-23T12:20:00.382Z,6.8
2022-08-23T12:25:00.292Z,15.5
2022-08-23T12:30:00.380Z,14.4
2022-08-23T12:35:00.330Z,7.6
2022-08-23T12:40:00.596Z,11.9
2022-08-23T12:45:00.354Z,14.4
2022-08-23T12:50:00.338Z,14.0
2022-08-23T12:55:00.361Z,14.4
2022-08-23T13:00:18.412Z,11.2
2022-08-23T13:05:00.319Z,15.1
2022-08-23T13:10:00.407Z,18.0
2022-08-23T13:15:00.499Z,11.5
2022-08-23T13:20:00.370Z,7.6
2022-08-23T13:25:29.503Z,9.4
2022-08-23T13:30:00.481Z,5.0
2022-08-23T13:35:00.316Z,3.2
2022-08-23T13:40:00.680Z,14.0
2022-08-23T13:45:00.372Z,8.3
2022-08-23T13:50:00.367Z,10.4
2022-08-23T13:55:00.318Z,16.9
2022-08-23T14:00:00.378Z,16.2
2022-08-23T14:05:00.577Z,8.3
2022-08-23T14:10:00.394Z,13.0
2022-08-23T14:15:00.349Z,9.4
2022-08-23T14:20:43.884Z,16.6
2022-08-23T14:25:01.358Z,16.9
2022-08-23T14:30:00.682Z,15.1
2022-08-23T14:35:00.300Z,11.9
2022-08-23T14:40:00.833Z,16.2
2022-08-23T14:45:00.351Z,10.8
2022-08-23T14:50:00.532Z,15.1
2022-08-23T14:55:00.353Z,8.3
2022-08-23T15:00:00.665Z,9.0
2022-08-23T15:05:00.333Z,11.2
2022-08-23T15:10:00.357Z,14.4
2022-08-23T15:15:00.356Z,15.1
2022-08-23T15:20:00.327Z,20.9
2022-08-23T15:25:00.448Z,10.4
2022-08-23T15:30:00.421Z,11.2
2022-08-23T15:35:00.751Z,6.8
2022-08-23T15:40:00.691Z,8.6
2022-08-23T15:45:00.444Z,5.4
2022-08-23T15:50:00.294Z,10.1
2022-08-23T15:55:00.312Z,11.5
2022-08-23T16:00:00.370Z,12.6
2022-08-23T16:05:00.300Z,8.6
2022-08-23T16:10:00.288Z,15.1
2022-08-23T16:15:00.351Z,10.4
2022-08-23T16:20:00.309Z,5.4
2022-08-23T16:25:00.347Z,9.4
2022-08-23T16:35:00.319Z,10.4
2022-08-23T16:40:00.626Z,8.3
2022-08-23T16:45:00.286Z,5.0
2022-08-23T16:50:00.349Z,6.5
2022-08-23T16:55:00.322Z,4.7
2022-08-23T17:00:00.362Z,6.5
2022-08-23T17:05:00.321Z,5.0
2022-08-23T17:10:00.341Z,5.8
2022-08-23T17:15:00.317Z,7.2
2022-08-23T17:20:00.350Z,5.0
2022-08-23T17:25:00.273Z,6.1
2022-08-23T17:30:00.329Z,10.8
2022-08-23T17:35:00.266Z,10.8
2022-08-23T17:40:00.653Z,5.8
2022-08-23T17:45:00.332Z,4.7
2022-08-23T17:50:00.306Z,5.8
2022-08-23T17:55:00.516Z,3.6
2022-08-23T18:00:00.386Z,4.0
2022-08-23T18:05:00.480Z,4.0
2022-08-23T18:10:00.565Z,2.5
2022-08-23T18:15:00.304Z,2.5
2022-08-23T18:20:00.326Z,1.1
2022-08-23T18:25:00.325Z,0.0
2022-08-23T18:30:00.348Z,0.0
2022-08-23T18:35:00.328Z,0.0
2022-08-23T18:40:00.482Z,0.0
2022-08-23T18:45:00.319Z,0.0
2022-08-23T18:50:00.306Z,0.0
2022-08-23T18:55:00.327Z,0.0
2022-08-23T19:00:00.315Z,0.0
2022-08-23T19:05:00.370Z,0.0
2022-08-23T19:10:00.277Z,1.4
2022-08-23T19:15:00.307Z,0.0
2022-08-23T19:20:00.299Z,0.0
2022-08-23T19:25:00.311Z,0.0
2022-08-23T19:30:00.339Z,0.0
2022-08-23T19:35:00.280Z,0.0
2022-08-23T19:40:00.510Z,0.0
2022-08-23T19:45:00.314Z,0.0
2022-08-23T19:50:00.296Z,0.0
2022-08-23T19:55:07.660Z,2.2
2022-08-23T20:00:00.299Z,2.5
2022-08-23T20:05:00.338Z,2.9
2022-08-23T20:10:00.420Z,2.5
2022-08-23T20:15:00.366Z,2.2
2022-08-23T20:20:00.353Z,0.0
2022-08-23T20:25:00.336Z,2.9
2022-08-23T20:30:00.395Z,0.0
2022-08-23T20:35:00.309Z,0.0
2022-08-23T20:40:00.701Z,0.0
2022-08-23T20:45:00.332Z,0.0
2022-08-23T20:50:00.316Z,0.0
2022-08-23T20:55:00.312Z,0.0
2022-08-23T21:00:00.397Z,1.8
2022-08-23T21:05:00.267Z,0.0
2022-08-23T21:10:00.477Z,0.0
2022-08-23T21:15:00.307Z,1.8
2022-08-23T21:20:00.313Z,2.5
2022-08-23T21:25:00.326Z,4.0
2022-08-23T21:30:00.331Z,2.2
2022-08-23T21:35:00.327Z,2.9
2022-08-23T21:40:00.514Z,3.6
2022-08-23T21:45:00.326Z,2.2
2022-08-23T21:50:00.308Z,0.0
2022-08-23T21:55:00.307Z,1.4
2022-08-23T22:00:00.384Z,2.5
2022-08-23T22:05:00.276Z,1.4
2022-08-23T22:10:00.294Z,1.8
2022-08-23T22:15:00.359Z,0.0
2022-08-23T22:20:00.327Z,0.0
2022-08-23T22:25:00.334Z,0.0
2022-08-23T22:30:00.331Z,0.0
2022-08-23T22:35:00.327Z,0.0
2022-08-23T22:40:00.715Z,0.0
2022-08-23T22:45:00.310Z,0.0
2022-08-23T22:50:00.300Z,0.0
2022-08-23T22:55:00.319Z,0.0
2022-08-23T23:00:00.537Z,0.0
2022-08-23T23:05:00.329Z,0.0
2022-08-23T23:10:00.275Z,0.0
2022-08-23T23:15:00.332Z,0.0
2022-08-23T23:20:00.255Z,0.0
2022-08-23T23:25:00.276Z,0.0
2022-08-23T23:30:00.378Z,0.0
2022-08-23T23:35:01.080Z,0.0
2022-08-23T23:40:00.688Z,0.0
2022-08-23T23:45:00.355Z,0.0
2022-08-23T23:50:00.327Z,0.0
2022-08-23T23:55:00.313Z,2.2
